TimeWET,TemperatureF,Dew PointF,Humidity,Sea Level PressureIn,VisibilityMPH,Wind Direction,Wind SpeedMPH,Gust SpeedMPH,PrecipitationIn,Events,Conditions,WindDirDegrees,DateUTC
12:00 AM,65,53,56,29.94,6,SE,4.6,,,,Mostly Cloudy,140,2012-10-29 00:00:00
12:00 AM,66.2,53.6,64,29.98,6.2,SE,4.6,-,N/A,,Scattered Clouds,130,2012-10-29 00:00:00
12:30 AM,64.4,53.6,68,29.95,6.2,SSE,3.5,-,N/A,,Scattered Clouds,150,2012-10-29 00:30:00
1:00 AM,66.2,51.8,60,29.95,6.2,Variable,2.3,-,N/A,,Scattered Clouds,0,2012-10-29 01:00:00
1:30 AM,64.4,53.6,68,29.95,6.2,Calm,Calm,-,N/A,,Scattered Clouds,0,2012-10-29 01:30:00
2:00 AM,64.4,53.6,68,29.95,6.2,Variable,2.3,-,N/A,,Scattered Clouds,0,2012-10-29 02:00:00
2:30 AM,62.6,53.6,72,29.95,6.2,WSW,4.6,-,N/A,,Scattered Clouds,240,2012-10-29 02:30:00
3:00 AM,63,54,66,29.92,6,Calm,Calm,,,,Mostly Cloudy,,2012-10-29 03:00:00
3:00 AM,62.6,55.4,77,29.95,6.2,Calm,Calm,-,N/A,,Scattered Clouds,0,2012-10-29 03:00:00
3:30 AM,62.6,55.4,77,29.95,6.2,Calm,Calm,-,N/A,,Scattered Clouds,0,2012-10-29 03:30:00
4:00 AM,62.6,55.4,77,29.92,6.2,Variable,2.3,-,N/A,,Scattered Clouds,0,2012-10-29 04:00:00
4:30 AM,64.4,55.4,73,29.92,6.2,Variable,2.3,-,N/A,,Unknown,0,2012-10-29 04:30:00
5:00 AM,62.6,59.0,88,29.92,6.2,East,5.8,-,N/A,,Mostly Cloudy,80,2012-10-29 05:00:00
5:30 AM,62.6,59.0,88,29.86,5.0,ENE,8.1,-,N/A,Rain,Light Rain,60,2012-10-29 05:30:00
6:00 AM,62,58,81,29.86,6,East,6.9,,,,Clear,100,2012-10-29 06:00:00
6:00 AM,60.8,57.2,88,29.89,6.2,East,6.9,-,N/A,,Scattered Clouds,100,2012-10-29 06:00:00
6:30 AM,62.6,57.2,82,29.89,6.2,ENE,5.8,-,N/A,,Scattered Clouds,70,2012-10-29 06:30:00
7:00 AM,62.6,57.2,82,29.89,6.2,ENE,4.6,-,N/A,,Scattered Clouds,70,2012-10-29 07:00:00
7:30 AM,62.6,57.2,82,29.86,6.2,Variable,2.3,-,N/A,,Scattered Clouds,0,2012-10-29 07:30:00
8:00 AM,62.6,57.2,82,29.89,6.2,ENE,6.9,-,N/A,,Scattered Clouds,60,2012-10-29 08:00:00
8:30 AM,62.6,57.2,82,29.89,6.2,NNE,4.6,-,N/A,,Scattered Clouds,20,2012-10-29 08:30:00
9:00 AM,64,59,79,29.90,6,West,8.1,,,,Clear,270,2012-10-29 09:00:00
9:00 AM,64.4,59.0,83,29.92,6.2,West,9.2,-,N/A,,Scattered Clouds,270,2012-10-29 09:00:00
9:30 AM,62.6,59.0,88,29.95,6.2,WSW,10.4,-,N/A,,Scattered Clouds,240,2012-10-29 09:30:00
10:00 AM,62.6,59.0,88,29.98,6.2,West,9.2,-,N/A,,Scattered Clouds,280,2012-10-29 10:00:00
10:30 AM,60.8,55.4,82,29.98,6.2,NW,5.8,-,N/A,Rain,Rain,320,2012-10-29 10:30:00
11:00 AM,60.8,55.4,82,29.98,6.2,ENE,5.8,-,N/A,Rain,Rain,70,2012-10-29 11:00:00
11:30 AM,60.8,57.2,88,29.95,6.2,ENE,6.9,-,N/A,,Mostly Cloudy,70,2012-10-29 11:30:00
12:00 PM,63,57,76,29.90,6,East,10.4,,,,Clear,80,2012-10-29 12:00:00
12:00 PM,62.6,57.2,82,29.92,6.2,East,10.4,-,N/A,,Mostly Cloudy,80,2012-10-29 12:00:00
12:30 PM,64.4,57.2,77,29.92,6.2,East,8.1,-,N/A,,Mostly Cloudy,80,2012-10-29 12:30:00
1:00 PM,66.2,57.2,73,29.89,6.2,ENE,9.2,-,N/A,,Mostly Cloudy,70,2012-10-29 13:00:00
1:30 PM,68.0,57.2,68,29.86,6.2,ENE,9.2,-,N/A,,Mostly Cloudy,70,2012-10-29 13:30:00
2:00 PM,68.0,57.2,68,29.86,6.2,ENE,8.1,-,N/A,,Scattered Clouds,60,2012-10-29 14:00:00
2:30 PM,68.0,57.2,68,29.86,6.2,NE,6.9,-,N/A,,Scattered Clouds,40,2012-10-29 14:30:00
3:00 PM,70,59,60,29.79,6,NE,6.9,,,,Partly Cloudy,40,2012-10-29 15:00:00
3:00 PM,69.8,59.0,68,29.86,6.2,NE,6.9,-,N/A,,Scattered Clouds,40,2012-10-29 15:00:00
3:30 PM,71.6,59.0,64,29.83,6.2,East,3.5,-,N/A,,Scattered Clouds,100,2012-10-29 15:30:00
4:00 PM,71.6,57.2,60,29.83,6.2,North,4.6,-,N/A,,Scattered Clouds,350,2012-10-29 16:00:00
4:30 PM,73.4,57.2,57,29.86,6.2,WNW,5.8,-,N/A,,Scattered Clouds,290,2012-10-29 16:30:00
5:00 PM,71.6,59.0,64,29.83,6.2,WNW,5.8,-,N/A,,Scattered Clouds,300,2012-10-29 17:00:00
5:30 PM,71.6,59.0,64,29.83,6.2,WSW,4.6,-,N/A,,Scattered Clouds,250,2012-10-29 17:30:00
6:00 PM,69,58,61,29.80,6,West,2.3,,,,Partly Cloudy,270,2012-10-29 18:00:00
6:00 PM,69.8,59.0,68,29.83,6.2,Variable,1.2,-,N/A,,Scattered Clouds,0,2012-10-29 18:00:00
6:30 PM,68.0,59.0,73,29.86,6.2,WSW,2.3,-,N/A,,Scattered Clouds,250,2012-10-29 18:30:00
7:00 PM,68.0,59.0,73,29.86,6.2,SSW,1.2,-,N/A,,Scattered Clouds,200,2012-10-29 19:00:00
7:30 PM,69.8,59.0,68,29.86,6.2,SSW,4.6,-,N/A,,Scattered Clouds,200,2012-10-29 19:30:00
8:00 PM,69.8,59.0,68,29.86,6.2,Calm,Calm,-,N/A,,Scattered Clouds,0,2012-10-29 20:00:00
8:30 PM,69.8,59.0,68,29.86,6.2,Variable,2.3,-,N/A,,Scattered Clouds,0,2012-10-29 20:30:00
9:00 PM,69,59,62,29.81,6,Calm,Calm,,,,Partly Cloudy,,2012-10-29 21:00:00
9:00 PM,69.8,59.0,68,29.86,6.2,SSE,1.2,-,N/A,,Scattered Clouds,150,2012-10-29 21:00:00
9:30 PM,68.0,59.0,73,29.86,6.2,East,2.3,-,N/A,,Scattered Clouds,90,2012-10-29 21:30:00
10:00 PM,68.0,59.0,73,29.86,6.2,NNW,3.5,-,N/A,,Scattered Clouds,340,2012-10-29 22:00:00
10:30 PM,66.2,59.0,78,29.86,6.2,WSW,5.8,-,N/A,,Scattered Clouds,240,2012-10-29 22:30:00
11:00 PM,68.0,59.0,73,29.86,6.2,WSW,11.5,-,N/A,,Scattered Clouds,240,2012-10-29 23:00:00
11:30 PM,68.0,57.2,68,29.86,6.2,WSW,15.0,-,N/A,,Scattered Clouds,240,2012-10-29 23:30:00